sensor_id;sensor_type;location;lat;lon;timestamp;temperature;humidity
31133;DHT22;17779;50.942;4.026;2023-04-23T00:00:04;10.20;99.90
31133;DHT22;17779;50.942;4.026;2023-04-23T00:02:32;10.20;99.90
31133;DHT22;17779;50.942;4.026;2023-04-23T00:05:02;10.10;99.90
31133;DHT22;17779;50.942;4.026;2023-04-23T00:07:32;10.20;99.90
31133;DHT22;17779;50.942;4.026;2023-04-23T00:09:58;10.10;99.90
31133;DHT22;17779;50.942;4.026;2023-04-23T00:12:25;10.10;99.90
31133;DHT22;17779;50.942;4.026;2023-04-23T00:14:52;10.10;99.90
31133;DHT22;17779;50.942;4.026;2023-04-23T00:17:17;10.10;99.90
31133;DHT22;17779;50.942;4.026;2023-04-23T00:19:44;10.10;99.90
31133;DHT22;17779;50.942;4.026;2023-04-23T00:22:10;10.00;99.90
31133;DHT22;17779;50.942;4.026;2023-04-23T00:24:39;10.00;99.90
31133;DHT22;17779;50.942;4.026;2023-04-23T00:27:08;10.00;99.90
31133;DHT22;17779;50.942;4.026;2023-04-23T00:29:35;10.10;99.90
31133;DHT22;17779;50.942;4.026;2023-04-23T00:32:00;10.20;99.90
31133;DHT22;17779;50.942;4.026;2023-04-23T00:34:27;10.00;99.90
31133;DHT22;17779;50.942;4.026;2023-04-23T00:36:53;10.10;99.90
31133;DHT22;17779;50.942;4.026;2023-04-23T00:39:19;10.10;99.90
31133;DHT22;17779;50.942;4.026;2023-04-23T00:41:45;10.10;99.90
31133;DHT22;17779;50.942;4.026;2023-04-23T00:44:11;10.00;99.90
31133;DHT22;17779;50.942;4.026;2023-04-23T00:46:37;9.90;99.90
31133;DHT22;17779;50.942;4.026;2023-04-23T00:49:03;9.90;99.90
31133;DHT22;17779;50.942;4.026;2023-04-23T00:51:29;9.90;99.90
31133;DHT22;17779;50.942;4.026;2023-04-23T00:53:56;9.90;99.90
31133;DHT22;17779;50.942;4.026;2023-04-23T00:56:23;9.90;99.90
31133;DHT22;17779;50.942;4.026;2023-04-23T00:58:51;10.00;99.90
31133;DHT22;17779;50.942;4.026;2023-04-23T01:01:17;10.10;99.90
31133;DHT22;17779;50.942;4.026;2023-04-23T01:03:45;10.00;99.90
31133;DHT22;17779;50.942;4.026;2023-04-23T01:06:12;10.10;99.90
31133;DHT22;17779;50.942;4.026;2023-04-23T01:08:38;10.20;99.90
31133;DHT22;17779;50.942;4.026;2023-04-23T01:11:05;10.40;99.90
31133;DHT22;17779;50.942;4.026;2023-04-23T01:13:32;10.50;99.90
31133;DHT22;17779;50.942;4.026;2023-04-23T01:15:59;10.60;99.90
31133;DHT22;17779;50.942;4.026;2023-04-23T01:18:25;10.60;99.90
31133;DHT22;17779;50.942;4.026;2023-04-23T01:20:51;10.70;99.90
31133;DHT22;17779;50.942;4.026;2023-04-23T01:23:17;10.70;99.90
31133;DHT22;17779;50.942;4.026;2023-04-23T01:25:43;10.70;99.90
31133;DHT22;17779;50.942;4.026;2023-04-23T01:28:09;10.70;99.90
31133;DHT22;17779;50.942;4.026;2023-04-23T01:30:35;11.00;99.90
31133;DHT22;17779;50.942;4.026;2023-04-23T01:33:03;11.00;99.90
31133;DHT22;17779;50.942;4.026;2023-04-23T01:35:30;11.00;99.90
31133;DHT22;17779;50.942;4.026;2023-04-23T01:37:58;11.00;99.90
31133;DHT22;17779;50.942;4.026;2023-04-23T01:40:25;11.00;99.90
31133;DHT22;17779;50.942;4.026;2023-04-23T01:42:51;11.10;99.90
31133;DHT22;17779;50.942;4.026;2023-04-23T01:45:17;11.20;99.90
31133;DHT22;17779;50.942;4.026;2023-04-23T01:47:46;11.00;99.90
31133;DHT22;17779;50.942;4.026;2023-04-23T01:50:12;11.10;99.90
31133;DHT22;17779;50.942;4.026;2023-04-23T01:52:38;11.00;99.90
31133;DHT22;17779;50.942;4.026;2023-04-23T01:55:04;10.90;99.90
31133;DHT22;17779;50.942;4.026;2023-04-23T01:57:30;10.80;99.90
31133;DHT22;17779;50.942;4.026;2023-04-23T02:00:01;10.80;99.90
31133;DHT22;17779;50.942;4.026;2023-04-23T02:02:30;10.70;99.90
31133;DHT22;17779;50.942;4.026;2023-04-23T02:04:57;10.50;99.90
31133;DHT22;17779;50.942;4.026;2023-04-23T02:07:23;10.50;99.90
31133;DHT22;17779;50.942;4.026;2023-04-23T02:09:49;10.50;99.90
31133;DHT22;17779;50.942;4.026;2023-04-23T02:12:15;10.50;99.90
31133;DHT22;17779;50.942;4.026;2023-04-23T02:14:40;10.60;99.90
31133;DHT22;17779;50.942;4.026;2023-04-23T02:17:06;10.60;99.90
31133;DHT22;17779;50.942;4.026;2023-04-23T02:19:32;10.50;99.90
31133;DHT22;17779;50.942;4.026;2023-04-23T02:22:00;10.40;99.90
31133;DHT22;17779;50.942;4.026;2023-04-23T02:24:26;10.30;99.90
31133;DHT22;17779;50.942;4.026;2023-04-23T02:26:52;10.20;99.90
31133;DHT22;17779;50.942;4.026;2023-04-23T02:29:17;10.10;99.90
31133;DHT22;17779;50.942;4.026;2023-04-23T02:31:43;10.30;99.90
31133;DHT22;17779;50.942;4.026;2023-04-23T02:34:09;10.30;99.90
31133;DHT22;17779;50.942;4.026;2023-04-23T02:36:35;10.30;99.90
31133;DHT22;17779;50.942;4.026;2023-04-23T02:39:00;10.10;99.90
31133;DHT22;17779;50.942;4.026;2023-04-23T02:41:28;10.20;99.90
31133;DHT22;17779;50.942;4.026;2023-04-23T02:43:54;10.30;99.90
31133;DHT22;17779;50.942;4.026;2023-04-23T02:46:21;10.30;99.90
31133;DHT22;17779;50.942;4.026;2023-04-23T02:48:47;10.30;99.90
31133;DHT22;17779;50.942;4.026;2023-04-23T02:51:13;10.30;99.90
31133;DHT22;17779;50.942;4.026;2023-04-23T02:53:39;10.20;99.90
31133;DHT22;17779;50.942;4.026;2023-04-23T02:56:05;10.10;99.90
31133;DHT22;17779;50.942;4.026;2023-04-23T02:58:31;10.20;99.90
31133;DHT22;17779;50.942;4.026;2023-04-23T03:00:57;10.20;99.90
31133;DHT22;17779;50.942;4.026;2023-04-23T03:03:24;10.30;99.90
31133;DHT22;17779;50.942;4.026;2023-04-23T03:05:51;10.30;99.90
31133;DHT22;17779;50.942;4.026;2023-04-23T03:08:17;10.20;99.90
31133;DHT22;17779;50.942;4.026;2023-04-23T03:10:43;10.10;99.90
31133;DHT22;17779;50.942;4.026;2023-04-23T03:13:09;10.10;99.90
31133;DHT22;17779;50.942;4.026;2023-04-23T03:15:35;9.90;99.90
31133;DHT22;17779;50.942;4.026;2023-04-23T03:18:00;9.90;99.90
31133;DHT22;17779;50.942;4.026;2023-04-23T03:20:27;10.00;99.90
31133;DHT22;17779;50.942;4.026;2023-04-23T03:22:52;10.00;99.90
31133;DHT22;17779;50.942;4.026;2023-04-23T03:25:18;10.00;99.90
31133;DHT22;17779;50.942;4.026;2023-04-23T03:27:46;10.00;99.90
31133;DHT22;17779;50.942;4.026;2023-04-23T03:30:12;10.00;99.90
31133;DHT22;17779;50.942;4.026;2023-04-23T03:32:37;10.00;99.90
31133;DHT22;17779;50.942;4.026;2023-04-23T03:35:04;10.00;99.90
31133;DHT22;17779;50.942;4.026;2023-04-23T03:37:30;9.90;99.90
31133;DHT22;17779;50.942;4.026;2023-04-23T03:39:55;10.00;99.90
31133;DHT22;17779;50.942;4.026;2023-04-23T03:42:21;9.90;99.90
31133;DHT22;17779;50.942;4.026;2023-04-23T03:44:47;10.00;99.90
31133;DHT22;17779;50.942;4.026;2023-04-23T03:47:12;9.90;99.90
31133;DHT22;17779;50.942;4.026;2023-04-23T03:49:38;9.80;99.90
31133;DHT22;17779;50.942;4.026;2023-04-23T03:52:04;9.70;99.90
31133;DHT22;17779;50.942;4.026;2023-04-23T03:54:30;9.70;99.90
31133;DHT22;17779;50.942;4.026;2023-04-23T03:56:56;9.70;99.90
31133;DHT22;17779;50.942;4.026;2023-04-23T03:59:22;9.70;99.90
31133;DHT22;17779;50.942;4.026;2023-04-23T04:01:48;9.70;99.90
31133;DHT22;17779;50.942;4.026;2023-04-23T04:04:14;9.60;99.90
31133;DHT22;17779;50.942;4.026;2023-04-23T04:06:40;9.70;99.90
31133;DHT22;17779;50.942;4.026;2023-04-23T04:09:06;9.60;99.90
31133;DHT22;17779;50.942;4.026;2023-04-23T04:11:33;9.60;99.90
31133;DHT22;17779;50.942;4.026;2023-04-23T04:13:58;9.60;99.90
31133;DHT22;17779;50.942;4.026;2023-04-23T04:16:24;9.50;99.90
31133;DHT22;17779;50.942;4.026;2023-04-23T04:18:50;9.60;99.90
31133;DHT22;17779;50.942;4.026;2023-04-23T04:21:16;9.50;99.90
31133;DHT22;17779;50.942;4.026;2023-04-23T04:23:44;9.50;99.90
31133;DHT22;17779;50.942;4.026;2023-04-23T04:26:10;9.60;99.90
31133;DHT22;17779;50.942;4.026;2023-04-23T04:28:37;9.50;99.90
31133;DHT22;17779;50.942;4.026;2023-04-23T04:31:04;9.50;99.90
31133;DHT22;17779;50.942;4.026;2023-04-23T04:33:31;9.50;99.90
31133;DHT22;17779;50.942;4.026;2023-04-23T04:35:57;9.50;99.90
31133;DHT22;17779;50.942;4.026;2023-04-23T04:38:25;9.40;99.90
31133;DHT22;17779;50.942;4.026;2023-04-23T04:40:54;9.40;99.90
31133;DHT22;17779;50.942;4.026;2023-04-23T04:43:23;9.40;99.90
31133;DHT22;17779;50.942;4.026;2023-04-23T04:45:49;9.50;99.90
31133;DHT22;17779;50.942;4.026;2023-04-23T04:48:15;9.50;99.90
31133;DHT22;17779;50.942;4.026;2023-04-23T04:50:42;9.40;99.90
31133;DHT22;17779;50.942;4.026;2023-04-23T04:53:07;9.40;99.90
31133;DHT22;17779;50.942;4.026;2023-04-23T04:55:33;9.40;99.90
31133;DHT22;17779;50.942;4.026;2023-04-23T04:57:59;9.30;99.90
31133;DHT22;17779;50.942;4.026;2023-04-23T05:00:26;9.30;99.90
31133;DHT22;17779;50.942;4.026;2023-04-23T05:02:56;9.30;99.90
31133;DHT22;17779;50.942;4.026;2023-04-23T05:05:23;9.40;99.90
31133;DHT22;17779;50.942;4.026;2023-04-23T05:07:49;9.50;99.90
31133;DHT22;17779;50.942;4.026;2023-04-23T05:10:20;9.50;99.90
31133;DHT22;17779;50.942;4.026;2023-04-23T05:12:46;9.50;99.90
31133;DHT22;17779;50.942;4.026;2023-04-23T05:15:13;9.50;99.90
31133;DHT22;17779;50.942;4.026;2023-04-23T05:17:40;9.60;99.90
31133;DHT22;17779;50.942;4.026;2023-04-23T05:20:07;9.70;99.90
31133;DHT22;17779;50.942;4.026;2023-04-23T05:22:40;9.60;99.90
31133;DHT22;17779;50.942;4.026;2023-04-23T05:25:06;9.50;99.90
31133;DHT22;17779;50.942;4.026;2023-04-23T05:27:33;9.50;99.90
31133;DHT22;17779;50.942;4.026;2023-04-23T05:30:01;9.60;99.90
31133;DHT22;17779;50.942;4.026;2023-04-23T05:32:27;9.70;99.90
31133;DHT22;17779;50.942;4.026;2023-04-23T05:34:52;9.80;99.90
31133;DHT22;17779;50.942;4.026;2023-04-23T05:37:18;9.90;99.90
31133;DHT22;17779;50.942;4.026;2023-04-23T05:39:44;10.00;99.90
31133;DHT22;17779;50.942;4.026;2023-04-23T05:42:10;10.00;99.90
31133;DHT22;17779;50.942;4.026;2023-04-23T05:44:35;10.20;99.90
31133;DHT22;17779;50.942;4.026;2023-04-23T05:47:01;10.20;99.90
31133;DHT22;17779;50.942;4.026;2023-04-23T05:49:27;10.20;99.90
31133;DHT22;17779;50.942;4.026;2023-04-23T05:51:53;10.40;99.90
31133;DHT22;17779;50.942;4.026;2023-04-23T05:54:18;10.60;99.90
31133;DHT22;17779;50.942;4.026;2023-04-23T05:56:44;10.90;99.90
31133;DHT22;17779;50.942;4.026;2023-04-23T05:59:10;11.00;99.90
31133;DHT22;17779;50.942;4.026;2023-04-23T06:01:36;11.20;99.90
31133;DHT22;17779;50.942;4.026;2023-04-23T06:04:02;11.30;99.90
31133;DHT22;17779;50.942;4.026;2023-04-23T06:06:28;11.60;99.90
31133;DHT22;17779;50.942;4.026;2023-04-23T06:08:53;11.70;99.90
31133;DHT22;17779;50.942;4.026;2023-04-23T06:11:19;11.90;99.90
31133;DHT22;17779;50.942;4.026;2023-04-23T06:13:46;12.10;99.90
31133;DHT22;17779;50.942;4.026;2023-04-23T06:16:11;12.40;99.90
31133;DHT22;17779;50.942;4.026;2023-04-23T06:18:37;12.40;99.90
31133;DHT22;17779;50.942;4.026;2023-04-23T06:21:04;12.70;99.90
31133;DHT22;17779;50.942;4.026;2023-04-23T06:23:31;13.00;99.90
31133;DHT22;17779;50.942;4.026;2023-04-23T06:25:57;12.70;99.90
31133;DHT22;17779;50.942;4.026;2023-04-23T06:28:23;12.60;99.90
31133;DHT22;17779;50.942;4.026;2023-04-23T06:30:48;12.50;99.90
31133;DHT22;17779;50.942;4.026;2023-04-23T06:33:14;12.50;99.90
31133;DHT22;17779;50.942;4.026;2023-04-23T06:35:40;12.50;99.90
31133;DHT22;17779;50.942;4.026;2023-04-23T06:38:06;12.40;99.90
31133;DHT22;17779;50.942;4.026;2023-04-23T06:40:32;12.60;99.90
31133;DHT22;17779;50.942;4.026;2023-04-23T06:42:58;12.70;99.90
31133;DHT22;17779;50.942;4.026;2023-04-23T06:45:23;13.60;99.90
31133;DHT22;17779;50.942;4.026;2023-04-23T06:47:49;14.40;99.90
31133;DHT22;17779;50.942;4.026;2023-04-23T06:50:15;14.70;99.90
31133;DHT22;17779;50.942;4.026;2023-04-23T06:52:42;14.30;99.90
31133;DHT22;17779;50.942;4.026;2023-04-23T06:55:08;14.00;99.90
31133;DHT22;17779;50.942;4.026;2023-04-23T06:57:34;13.70;99.90
31133;DHT22;17779;50.942;4.026;2023-04-23T07:00:00;13.60;99.90
31133;DHT22;17779;50.942;4.026;2023-04-23T07:02:26;14.00;99.90
31133;DHT22;17779;50.942;4.026;2023-04-23T07:04:52;15.20;99.90
31133;DHT22;17779;50.942;4.026;2023-04-23T07:07:17;16.20;99.90
31133;DHT22;17779;50.942;4.026;2023-04-23T07:09:43;17.20;99.90
31133;DHT22;17779;50.942;4.026;2023-04-23T07:12:09;17.50;99.90
31133;DHT22;17779;50.942;4.026;2023-04-23T07:14:35;17.40;99.90
31133;DHT22;17779;50.942;4.026;2023-04-23T07:17:00;18.00;99.90
31133;DHT22;17779;50.942;4.026;2023-04-23T07:19:26;17.60;99.90
31133;DHT22;17779;50.942;4.026;2023-04-23T07:21:52;17.40;99.90
31133;DHT22;17779;50.942;4.026;2023-04-23T07:24:18;18.10;99.90
31133;DHT22;17779;50.942;4.026;2023-04-23T07:26:44;18.10;99.90
31133;DHT22;17779;50.942;4.026;2023-04-23T07:29:10;17.90;99.90
31133;DHT22;17779;50.942;4.026;2023-04-23T07:31:36;18.50;99.90
31133;DHT22;17779;50.942;4.026;2023-04-23T07:34:02;18.50;99.90
31133;DHT22;17779;50.942;4.026;2023-04-23T07:36:28;19.30;99.90
31133;DHT22;17779;50.942;4.026;2023-04-23T07:38:53;19.30;99.90
31133;DHT22;17779;50.942;4.026;2023-04-23T07:41:19;19.30;99.90
31133;DHT22;17779;50.942;4.026;2023-04-23T07:43:45;18.70;99.90
31133;DHT22;17779;50.942;4.026;2023-04-23T07:46:11;18.90;99.90
31133;DHT22;17779;50.942;4.026;2023-04-23T07:48:37;18.80;99.90
31133;DHT22;17779;50.942;4.026;2023-04-23T07:51:02;19.70;99.90
31133;DHT22;17779;50.942;4.026;2023-04-23T07:53:28;19.80;99.90
31133;DHT22;17779;50.942;4.026;2023-04-23T07:55:55;19.80;99.90
31133;DHT22;17779;50.942;4.026;2023-04-23T07:58:23;19.10;99.90
31133;DHT22;17779;50.942;4.026;2023-04-23T08:00:49;18.70;99.90
31133;DHT22;17779;50.942;4.026;2023-04-23T08:03:15;17.90;99.90
31133;DHT22;17779;50.942;4.026;2023-04-23T08:05:40;17.90;99.90
31133;DHT22;17779;50.942;4.026;2023-04-23T08:08:07;18.60;99.90
31133;DHT22;17779;50.942;4.026;2023-04-23T08:10:34;18.80;99.90
31133;DHT22;17779;50.942;4.026;2023-04-23T08:13:01;19.10;99.90
31133;DHT22;17779;50.942;4.026;2023-04-23T08:15:26;19.30;99.90
31133;DHT22;17779;50.942;4.026;2023-04-23T08:17:52;19.30;99.90
31133;DHT22;17779;50.942;4.026;2023-04-23T08:20:18;19.30;99.90
31133;DHT22;17779;50.942;4.026;2023-04-23T08:22:44;19.00;99.90
31133;DHT22;17779;50.942;4.026;2023-04-23T08:25:10;19.00;99.90
31133;DHT22;17779;50.942;4.026;2023-04-23T08:27:37;18.40;99.90
31133;DHT22;17779;50.942;4.026;2023-04-23T08:30:04;18.40;99.90
31133;DHT22;17779;50.942;4.026;2023-04-23T08:32:31;18.70;99.90
31133;DHT22;17779;50.942;4.026;2023-04-23T08:34:57;18.20;99.90
31133;DHT22;17779;50.942;4.026;2023-04-23T08:37:23;18.80;99.90
31133;DHT22;17779;50.942;4.026;2023-04-23T08:39:49;18.80;99.90
31133;DHT22;17779;50.942;4.026;2023-04-23T08:42:21;19.00;99.90
31133;DHT22;17779;50.942;4.026;2023-04-23T08:44:50;18.60;99.90
31133;DHT22;17779;50.942;4.026;2023-04-23T08:47:21;18.80;99.90
31133;DHT22;17779;50.942;4.026;2023-04-23T08:49:52;18.60;99.90
31133;DHT22;17779;50.942;4.026;2023-04-23T08:52:22;18.50;99.90
31133;DHT22;17779;50.942;4.026;2023-04-23T08:54:52;18.30;99.90
31133;DHT22;17779;50.942;4.026;2023-04-23T08:57:18;17.60;99.90
31133;DHT22;17779;50.942;4.026;2023-04-23T08:59:45;18.10;99.90
31133;DHT22;17779;50.942;4.026;2023-04-23T09:02:12;17.80;99.90
31133;DHT22;17779;50.942;4.026;2023-04-23T09:04:39;17.90;99.90
31133;DHT22;17779;50.942;4.026;2023-04-23T09:07:05;17.30;99.90
31133;DHT22;17779;50.942;4.026;2023-04-23T09:09:36;17.30;99.90
31133;DHT22;17779;50.942;4.026;2023-04-23T09:12:07;17.30;99.90
31133;DHT22;17779;50.942;4.026;2023-04-23T09:14:35;17.20;99.90
31133;DHT22;17779;50.942;4.026;2023-04-23T09:17:03;17.00;99.90
31133;DHT22;17779;50.942;4.026;2023-04-23T09:19:28;16.90;99.90
31133;DHT22;17779;50.942;4.026;2023-04-23T09:21:56;16.60;99.90
31133;DHT22;17779;50.942;4.026;2023-04-23T09:24:23;16.30;99.90
31133;DHT22;17779;50.942;4.026;2023-04-23T09:26:50;16.40;99.90
31133;DHT22;17779;50.942;4.026;2023-04-23T09:29:18;16.50;99.90
31133;DHT22;17779;50.942;4.026;2023-04-23T09:31:55;16.70;99.90
31133;DHT22;17779;50.942;4.026;2023-04-23T09:34:22;16.80;99.90
31133;DHT22;17779;50.942;4.026;2023-04-23T09:36:50;16.90;99.90
31133;DHT22;17779;50.942;4.026;2023-04-23T09:39:20;16.90;99.90
31133;DHT22;17779;50.942;4.026;2023-04-23T09:41:46;16.50;99.90
31133;DHT22;17779;50.942;4.026;2023-04-23T09:44:16;16.50;99.90
31133;DHT22;17779;50.942;4.026;2023-04-23T09:46:44;16.60;99.90
31133;DHT22;17779;50.942;4.026;2023-04-23T09:49:11;16.40;99.90
31133;DHT22;17779;50.942;4.026;2023-04-23T09:54:11;16.10;99.90
31133;DHT22;17779;50.942;4.026;2023-04-23T09:56:38;16.30;99.90
31133;DHT22;17779;50.942;4.026;2023-04-23T09:59:25;16.40;99.90
31133;DHT22;17779;50.942;4.026;2023-04-23T10:01:51;16.50;99.90
31133;DHT22;17779;50.942;4.026;2023-04-23T10:04:22;16.70;99.90
31133;DHT22;17779;50.942;4.026;2023-04-23T10:06:58;16.40;99.90
31133;DHT22;17779;50.942;4.026;2023-04-23T10:09:25;16.30;99.90
31133;DHT22;17779;50.942;4.026;2023-04-23T10:12:00;16.10;99.90
31133;DHT22;17779;50.942;4.026;2023-04-23T10:14:27;16.00;99.90
31133;DHT22;17779;50.942;4.026;2023-04-23T10:16:58;16.20;99.90
31133;DHT22;17779;50.942;4.026;2023-04-23T10:19:26;16.40;99.90
31133;DHT22;17779;50.942;4.026;2023-04-23T10:22:01;16.50;99.90
31133;DHT22;17779;50.942;4.026;2023-04-23T10:24:36;16.90;99.90
31133;DHT22;17779;50.942;4.026;2023-04-23T10:27:04;17.40;99.90
31133;DHT22;17779;50.942;4.026;2023-04-23T10:29:33;17.40;99.90
31133;DHT22;17779;50.942;4.026;2023-04-23T10:32:04;17.00;99.90
31133;DHT22;17779;50.942;4.026;2023-04-23T10:34:31;16.80;99.90
31133;DHT22;17779;50.942;4.026;2023-04-23T10:36:59;16.80;99.90
31133;DHT22;17779;50.942;4.026;2023-04-23T10:39:32;16.20;99.90
31133;DHT22;17779;50.942;4.026;2023-04-23T10:41:59;16.00;99.90
31133;DHT22;17779;50.942;4.026;2023-04-23T10:44:35;16.20;99.90
31133;DHT22;17779;50.942;4.026;2023-04-23T10:47:02;16.80;99.90
31133;DHT22;17779;50.942;4.026;2023-04-23T10:49:33;17.20;99.90
31133;DHT22;17779;50.942;4.026;2023-04-23T10:52:09;17.30;99.90
31133;DHT22;17779;50.942;4.026;2023-04-23T10:54:36;17.10;99.90
31133;DHT22;17779;50.942;4.026;2023-04-23T10:57:03;16.50;99.90
31133;DHT22;17779;50.942;4.026;2023-04-23T10:59:31;16.40;99.90
31133;DHT22;17779;50.942;4.026;2023-04-23T11:02:04;16.30;99.90
31133;DHT22;17779;50.942;4.026;2023-04-23T11:04:32;16.30;99.90
31133;DHT22;17779;50.942;4.026;2023-04-23T11:07:06;16.40;99.90
31133;DHT22;17779;50.942;4.026;2023-04-23T11:09:45;16.40;99.90
31133;DHT22;17779;50.942;4.026;2023-04-23T11:12:13;16.70;99.90
31133;DHT22;17779;50.942;4.026;2023-04-23T11:14:56;16.80;99.90
31133;DHT22;17779;50.942;4.026;2023-04-23T11:20:13;16.90;99.90
31133;DHT22;17779;50.942;4.026;2023-04-23T11:22:42;16.70;99.90
31133;DHT22;17779;50.942;4.026;2023-04-23T11:25:09;16.30;99.90
31133;DHT22;17779;50.942;4.026;2023-04-23T11:27:40;15.80;99.90
31133;DHT22;17779;50.942;4.026;2023-04-23T11:30:11;15.20;99.90
31133;DHT22;17779;50.942;4.026;2023-04-23T11:32:38;15.00;99.90
31133;DHT22;17779;50.942;4.026;2023-04-23T11:35:06;15.10;99.90
31133;DHT22;17779;50.942;4.026;2023-04-23T11:37:40;15.20;99.90
31133;DHT22;17779;50.942;4.026;2023-04-23T11:40:11;15.20;99.90
31133;DHT22;17779;50.942;4.026;2023-04-23T11:42:48;15.20;99.90
31133;DHT22;17779;50.942;4.026;2023-04-23T11:45:19;15.10;99.90
31133;DHT22;17779;50.942;4.026;2023-04-23T11:47:47;14.90;99.90
31133;DHT22;17779;50.942;4.026;2023-04-23T11:50:24;15.30;99.90
31133;DHT22;17779;50.942;4.026;2023-04-23T11:52:50;15.70;99.90
31133;DHT22;17779;50.942;4.026;2023-04-23T11:55:18;15.90;99.90
31133;DHT22;17779;50.942;4.026;2023-04-23T11:57:45;15.50;99.90
31133;DHT22;17779;50.942;4.026;2023-04-23T12:00:22;15.50;99.90
31133;DHT22;17779;50.942;4.026;2023-04-23T12:02:56;15.40;99.90
31133;DHT22;17779;50.942;4.026;2023-04-23T12:05:27;15.40;99.90
31133;DHT22;17779;50.942;4.026;2023-04-23T12:07:53;15.30;99.90
31133;DHT22;17779;50.942;4.026;2023-04-23T12:10:20;15.20;99.90
31133;DHT22;17779;50.942;4.026;2023-04-23T12:12:50;15.10;99.90
31133;DHT22;17779;50.942;4.026;2023-04-23T12:15:17;14.90;99.90
31133;DHT22;17779;50.942;4.026;2023-04-23T12:17:48;14.60;99.90
31133;DHT22;17779;50.942;4.026;2023-04-23T12:20:18;14.30;99.90
31133;DHT22;17779;50.942;4.026;2023-04-23T12:22:44;14.00;99.90
31133;DHT22;17779;50.942;4.026;2023-04-23T12:25:10;13.80;99.90
31133;DHT22;17779;50.942;4.026;2023-04-23T12:27:40;13.80;99.90
31133;DHT22;17779;50.942;4.026;2023-04-23T12:30:08;13.70;99.90
31133;DHT22;17779;50.942;4.026;2023-04-23T12:32:34;13.60;99.90
31133;DHT22;17779;50.942;4.026;2023-04-23T12:35:00;13.40;99.90
31133;DHT22;17779;50.942;4.026;2023-04-23T12:37:28;13.30;99.90
31133;DHT22;17779;50.942;4.026;2023-04-23T12:39:55;13.20;99.90
31133;DHT22;17779;50.942;4.026;2023-04-23T12:42:23;13.10;99.90
31133;DHT22;17779;50.942;4.026;2023-04-23T12:44:50;13.00;99.90
31133;DHT22;17779;50.942;4.026;2023-04-23T12:47:16;13.10;99.90
31133;DHT22;17779;50.942;4.026;2023-04-23T12:49:45;13.10;99.90
31133;DHT22;17779;50.942;4.026;2023-04-23T12:52:13;13.00;99.90
31133;DHT22;17779;50.942;4.026;2023-04-23T12:54:40;13.00;99.90
31133;DHT22;17779;50.942;4.026;2023-04-23T12:57:13;13.10;99.90
31133;DHT22;17779;50.942;4.026;2023-04-23T12:59:42;13.20;99.90
31133;DHT22;17779;50.942;4.026;2023-04-23T13:02:08;13.20;99.90
31133;DHT22;17779;50.942;4.026;2023-04-23T13:04:34;13.30;99.90
31133;DHT22;17779;50.942;4.026;2023-04-23T13:07:00;13.30;99.90
31133;DHT22;17779;50.942;4.026;2023-04-23T13:09:27;13.30;99.90
31133;DHT22;17779;50.942;4.026;2023-04-23T13:11:53;13.40;99.90
31133;DHT22;17779;50.942;4.026;2023-04-23T13:14:19;13.50;99.90
31133;DHT22;17779;50.942;4.026;2023-04-23T13:16:46;13.50;99.90
31133;DHT22;17779;50.942;4.026;2023-04-23T13:19:12;13.50;99.90
31133;DHT22;17779;50.942;4.026;2023-04-23T13:21:38;13.50;99.90
31133;DHT22;17779;50.942;4.026;2023-04-23T13:24:04;13.50;99.90
31133;DHT22;17779;50.942;4.026;2023-04-23T13:26:30;13.50;99.90
31133;DHT22;17779;50.942;4.026;2023-04-23T13:29:01;13.50;99.90
31133;DHT22;17779;50.942;4.026;2023-04-23T13:31:27;13.50;99.90
31133;DHT22;17779;50.942;4.026;2023-04-23T13:33:54;13.40;99.90
31133;DHT22;17779;50.942;4.026;2023-04-23T13:36:20;13.30;99.90
31133;DHT22;17779;50.942;4.026;2023-04-23T13:38:46;13.30;99.90
31133;DHT22;17779;50.942;4.026;2023-04-23T13:41:12;13.20;99.90
31133;DHT22;17779;50.942;4.026;2023-04-23T13:43:38;13.10;99.90
31133;DHT22;17779;50.942;4.026;2023-04-23T13:46:04;13.00;99.90
31133;DHT22;17779;50.942;4.026;2023-04-23T13:48:30;13.10;99.90
31133;DHT22;17779;50.942;4.026;2023-04-23T13:50:57;13.10;99.90
31133;DHT22;17779;50.942;4.026;2023-04-23T13:53:23;13.00;99.90
31133;DHT22;17779;50.942;4.026;2023-04-23T13:55:49;13.00;99.90
31133;DHT22;17779;50.942;4.026;2023-04-23T13:58:15;13.00;99.90
31133;DHT22;17779;50.942;4.026;2023-04-23T14:00:41;13.00;99.90
31133;DHT22;17779;50.942;4.026;2023-04-23T14:03:07;13.00;99.90
31133;DHT22;17779;50.942;4.026;2023-04-23T14:05:33;13.00;99.90
31133;DHT22;17779;50.942;4.026;2023-04-23T14:07:59;13.10;99.90
31133;DHT22;17779;50.942;4.026;2023-04-23T14:10:25;13.10;99.90
31133;DHT22;17779;50.942;4.026;2023-04-23T14:12:51;13.20;99.90
31133;DHT22;17779;50.942;4.026;2023-04-23T14:15:17;13.30;99.90
31133;DHT22;17779;50.942;4.026;2023-04-23T14:17:43;13.50;99.90
31133;DHT22;17779;50.942;4.026;2023-04-23T14:20:11;13.50;99.90
31133;DHT22;17779;50.942;4.026;2023-04-23T14:22:38;13.30;99.90
31133;DHT22;17779;50.942;4.026;2023-04-23T14:25:13;13.40;99.90
31133;DHT22;17779;50.942;4.026;2023-04-23T14:27:44;13.60;99.90
31133;DHT22;17779;50.942;4.026;2023-04-23T14:30:14;13.70;99.90
31133;DHT22;17779;50.942;4.026;2023-04-23T14:32:41;13.80;99.90
31133;DHT22;17779;50.942;4.026;2023-04-23T14:35:08;13.90;99.90
31133;DHT22;17779;50.942;4.026;2023-04-23T14:37:34;14.00;99.90
31133;DHT22;17779;50.942;4.026;2023-04-23T14:39:59;14.20;99.90
31133;DHT22;17779;50.942;4.026;2023-04-23T14:42:25;14.20;99.90
31133;DHT22;17779;50.942;4.026;2023-04-23T14:44:52;14.30;99.90
31133;DHT22;17779;50.942;4.026;2023-04-23T14:47:21;14.60;99.90
31133;DHT22;17779;50.942;4.026;2023-04-23T14:49:46;14.80;99.90
31133;DHT22;17779;50.942;4.026;2023-04-23T14:52:12;14.90;99.90
31133;DHT22;17779;50.942;4.026;2023-04-23T14:54:38;15.10;99.90
31133;DHT22;17779;50.942;4.026;2023-04-23T14:57:04;15.10;99.90
31133;DHT22;17779;50.942;4.026;2023-04-23T14:59:29;14.70;99.90
31133;DHT22;17779;50.942;4.026;2023-04-23T15:01:55;14.50;99.90
31133;DHT22;17779;50.942;4.026;2023-04-23T15:04:21;14.40;99.90
31133;DHT22;17779;50.942;4.026;2023-04-23T15:06:47;14.30;99.90
31133;DHT22;17779;50.942;4.026;2023-04-23T15:09:14;14.50;99.90
31133;DHT22;17779;50.942;4.026;2023-04-23T15:11:40;14.70;99.90
31133;DHT22;17779;50.942;4.026;2023-04-23T15:14:24;14.70;99.90
31133;DHT22;17779;50.942;4.026;2023-04-23T15:16:50;14.80;99.90
31133;DHT22;17779;50.942;4.026;2023-04-23T15:19:17;14.80;99.90
31133;DHT22;17779;50.942;4.026;2023-04-23T15:21:43;14.90;99.90
31133;DHT22;17779;50.942;4.026;2023-04-23T15:24:09;14.70;99.90
31133;DHT22;17779;50.942;4.026;2023-04-23T15:26:35;14.50;99.90
31133;DHT22;17779;50.942;4.026;2023-04-23T15:29:01;14.20;99.90
31133;DHT22;17779;50.942;4.026;2023-04-23T15:31:28;14.10;99.90
31133;DHT22;17779;50.942;4.026;2023-04-23T15:33:58;14.00;99.90
31133;DHT22;17779;50.942;4.026;2023-04-23T15:36:27;14.00;99.90